Time;durP1;ratioP1;P1;durP2;ratioP2;P2;SDS_P1;SDS_P2;PMS_P1;PMS_P2;Temp;Humidity;BMP_temperature;BMP_pressure;BME280_temperature;BME280_humidity;BME280_pressure;Samples;Min_cycle;Max_cycle;Signal;HPM_P1;HPM_P2
2022/08/26 00:01:34;;;;;;;;;;;22.60;99.90;;;;;;5034228;28;20037;-78
2022/08/26 00:04:00;;;;;;;10.68;7.75;;;22.60;99.90;;;;;;5033821;28;19925;-78
2022/08/26 00:06:25;;;;;;;12.52;7.90;;;22.60;99.90;;;;;;5033739;28;20053;-78
2022/08/26 00:08:52;;;;;;;13.27;7.97;;;22.50;99.90;;;;;;5033702;28;20041;-78
2022/08/26 00:11:18;;;;;;;10.05;7.30;;;22.50;99.90;;;;;;5033681;28;20299;-78
2022/08/26 00:13:43;;;;;;;9.15;7.03;;;22.50;99.90;;;;;;5033637;28;20485;-78
2022/08/26 00:16:10;;;;;;;12.50;7.10;;;22.40;99.90;;;;;;5033529;28;20176;-78
2022/08/26 00:18:36;;;;;;;;;;;22.40;99.90;;;;;;5034357;28;20045;-78
2022/08/26 00:21:03;;;;;;;10.25;8.15;;;22.40;99.90;;;;;;5032458;28;20404;-78
2022/08/26 00:23:28;;;;;;;;;;;22.30;99.90;;;;;;5034001;28;20148;-78
2022/08/26 00:25:54;;;;;;;11.35;7.95;;;22.20;99.90;;;;;;5033447;28;19976;-78
2022/08/26 00:28:20;;;;;;;12.23;8.60;;;22.20;99.90;;;;;;5033406;28;20065;-77
2022/08/26 00:30:48;;;;;;;10.45;8.27;;;22.10;99.90;;;;;;5033510;28;20455;-78
2022/08/26 00:33:14;;;;;;;13.38;8.93;;;22.10;99.90;;;;;;5033474;28;20044;-78
2022/08/26 00:35:41;;;;;;;10.25;8.07;;;22.10;99.90;;;;;;5033457;28;20440;-78
2022/08/26 00:38:07;;;;;;;12.55;9.13;;;22.10;99.90;;;;;;5032377;28;20048;-78
2022/08/26 00:40:42;;;;;;;10.85;8.57;;;22.00;99.90;;;;;;5032613;28;20460;-78
2022/08/26 00:43:07;;;;;;;11.27;9.35;;;22.00;99.90;;;;;;5032477;28;20045;-78
2022/08/26 00:45:42;;;;;;;11.87;9.63;;;21.90;99.90;;;;;;5033374;28;20064;-78
2022/08/26 00:48:09;;;;;;;13.25;9.88;;;21.90;99.90;;;;;;5033360;28;20037;-78
2022/08/26 00:50:39;;;;;;;12.80;11.13;;;21.80;99.90;;;;;;5033312;28;20508;-78
2022/08/26 00:53:20;;;;;;;11.48;9.93;;;21.70;99.90;;;;;;5032580;28;20056;-78
2022/08/26 00:55:53;;;;;;;13.77;12.32;;;21.70;99.90;;;;;;5033297;28;20054;-78
2022/08/26 00:58:21;;;;;;;16.40;12.90;;;21.60;99.90;;;;;;5033117;28;20520;-78
2022/08/26 01:00:47;;;;;;;17.13;15.32;;;21.60;99.90;;;;;;5033281;28;20087;-77
2022/08/26 01:03:13;;;;;;;16.05;14.52;;;21.50;99.90;;;;;;5033531;28;20046;-78
2022/08/26 01:05:41;;;;;;;20.42;17.38;;;21.40;99.90;;;;;;5033436;28;20100;-78
2022/08/26 01:08:06;;;;;;;21.27;17.23;;;21.40;99.90;;;;;;5035626;28;20092;-78
2022/08/26 01:10:32;;;;;;;22.23;18.57;;;21.30;99.90;;;;;;5036739;28;20088;-78
2022/08/26 01:13:04;;;;;;;22.90;18.90;;;21.20;99.90;;;;;;5036617;28;20045;-78
2022/08/26 01:15:34;;;;;;;26.98;21.17;;;21.20;99.90;;;;;;5036656;28;20481;-78
2022/08/26 01:18:04;;;;;;;19.58;17.48;;;21.20;99.90;;;;;;5036945;28;20045;-78
2022/08/26 01:20:40;;;;;;;24.40;21.75;;;21.10;99.90;;;;;;5036628;28;20045;-78
2022/08/26 01:23:08;;;;;;;27.50;24.75;;;21.10;99.90;;;;;;5037194;28;20053;-78
2022/08/26 01:25:39;;;;;;;27.98;25.27;;;21.00;99.90;;;;;;5036557;28;20152;-78
2022/08/26 01:28:11;;;;;;;26.80;23.98;;;21.00;99.90;;;;;;5036778;28;20469;-78
2022/08/26 01:30:39;;;;;;;24.38;21.65;;;21.00;99.90;;;;;;5036795;28;20045;-77
2022/08/26 01:33:10;;;;;;;28.60;25.88;;;20.90;99.90;;;;;;5036421;28;20049;-78
2022/08/26 01:35:36;;;;;;;29.58;25.60;;;20.90;99.90;;;;;;5036937;28;20042;-78
2022/08/26 01:38:03;;;;;;;31.20;28.27;;;20.90;99.90;;;;;;5036349;28;20041;-78
2022/08/26 01:40:35;;;;;;;27.52;24.95;;;20.70;99.90;;;;;;5036289;28;20049;-78
2022/08/26 01:43:02;;;;;;;30.67;27.58;;;20.90;99.90;;;;;;5036489;28;20072;-78
2022/08/26 01:45:31;;;;;;;30.63;27.20;;;20.70;99.90;;;;;;5036026;28;20045;-78
2022/08/26 01:48:00;;;;;;;30.83;27.73;;;20.70;99.90;;;;;;5035992;28;20480;-78
2022/08/26 01:50:31;;;;;;;31.42;27.95;;;20.80;99.90;;;;;;5036065;28;20129;-78
2022/08/26 01:53:00;;;;;;;31.15;27.85;;;20.60;99.90;;;;;;5036100;28;20132;-78
2022/08/26 01:55:27;;;;;;;33.15;29.70;;;20.60;99.90;;;;;;5035949;28;20057;-78
2022/08/26 01:57:54;;;;;;;31.15;28.08;;;20.60;99.90;;;;;;5035914;28;20547;-78
2022/08/26 02:00:22;;;;;;;33.15;29.67;;;20.60;99.90;;;;;;5035910;28;20052;-78
2022/08/26 02:03:15;;;;;;;27.08;24.40;;;20.60;99.90;;;;;;5035852;28;20052;-78
2022/08/26 02:05:38;;;;;;;33.30;29.95;;;20.60;99.90;;;;;;5036328;28;20060;-77
2022/08/26 02:08:04;;;;;;;29.90;26.60;;;20.60;99.90;;;;;;5035650;28;20037;-77
2022/08/26 02:10:30;;;;;;;34.33;30.52;;;20.60;99.90;;;;;;5035931;28;20050;-78
2022/08/26 02:12:55;;;;;;;30.67;27.37;;;20.50;99.90;;;;;;5035635;28;20578;-78
2022/08/26 02:15:21;;;;;;;36.23;31.57;;;20.60;99.90;;;;;;5035581;28;20488;-77
2022/08/26 02:17:47;;;;;;;28.60;25.67;;;20.50;99.90;;;;;;5035109;28;20092;-78
2022/08/26 02:20:16;;;;;;;32.00;28.60;;;20.50;99.90;;;;;;5035568;28;20068;-77
2022/08/26 02:22:43;;;;;;;34.67;30.55;;;20.50;99.90;;;;;;5035432;28;20049;-78
2022/08/26 02:25:29;;;;;;;38.78;30.85;;;20.50;99.90;;;;;;5035516;28;20448;-78
2022/08/26 02:27:55;;;;;;;31.05;26.23;;;20.50;99.90;;;;;;5024848;28;20497;-78
2022/08/26 02:30:30;;;;;;;31.80;28.40;;;20.60;99.90;;;;;;5035382;28;20052;-78
2022/08/26 02:33:03;;;;;;;36.45;30.92;;;20.60;99.90;;;;;;5035296;28;20042;-77
2022/08/26 02:35:30;;;;;;;34.45;30.58;;;20.50;99.90;;;;;;5035285;28;20430;-78
2022/08/26 02:37:57;;;;;;;34.53;30.13;;;20.50;99.90;;;;;;5035236;28;20091;-78
2022/08/26 02:40:29;;;;;;;34.83;27.88;;;20.50;99.90;;;;;;5035204;28;20049;-78
2022/08/26 02:42:55;;;;;;;36.50;29.25;;;20.50;99.90;;;;;;5034393;28;20085;-78
2022/08/26 02:45:21;;;;;;;34.53;29.42;;;20.60;99.90;;;;;;5035124;28;20076;-78
2022/08/26 02:47:48;;;;;;;35.73;26.80;;;20.50;99.90;;;;;;5034968;28;20580;-78
2022/08/26 02:50:14;;;;;;;31.70;24.55;;;20.50;99.90;;;;;;5034984;28;20437;-78
2022/08/26 02:52:39;;;;;;;30.73;25.97;;;20.60;99.90;;;;;;5034891;28;20087;-77
2022/08/26 02:55:06;;;;;;;32.57;25.00;;;20.50;99.90;;;;;;5034817;28;20049;-78
2022/08/26 02:57:33;;;;;;;33.50;29.30;;;20.50;99.90;;;;;;5034797;28;20045;-78
2022/08/26 03:00:00;;;;;;;35.42;26.27;;;20.50;99.90;;;;;;5035222;28;20041;-77
2022/08/26 03:02:26;;;;;;;32.88;24.40;;;20.50;99.90;;;;;;5033848;28;20056;-78
2022/08/26 03:04:52;;;;;;;29.48;25.85;;;20.60;99.90;;;;;;5034716;28;20103;-78
2022/08/26 03:07:18;;;;;;;31.80;25.50;;;20.50;99.90;;;;;;5034279;28;20409;-78
2022/08/26 03:09:44;;;;;;;33.83;26.50;;;20.60;99.90;;;;;;5034991;28;20045;-77
2022/08/26 03:12:11;;;;;;;32.30;27.47;;;20.50;99.90;;;;;;5033755;28;20535;-78
2022/08/26 03:14:37;;;;;;;31.42;23.60;;;20.60;99.90;;;;;;5034663;28;20386;-77
2022/08/26 03:17:03;;;;;;;34.80;23.57;;;20.60;99.90;;;;;;5034463;28;20128;-78
2022/08/26 03:19:30;;;;;;;28.30;23.75;;;20.60;99.90;;;;;;5034434;28;20041;-78
2022/08/26 03:21:57;;;;;;;31.73;23.95;;;20.70;99.90;;;;;;5034344;28;20041;-78
2022/08/26 03:24:22;;;;;;;30.25;26.17;;;20.50;99.90;;;;;;5034372;28;20128;-78
2022/08/26 03:26:48;;;;;;;28.50;23.97;;;20.70;99.90;;;;;;5034699;28;20084;-78
2022/08/26 03:31:59;;;;;;;30.55;24.75;;;20.70;99.90;;;;;;5034212;28;20053;-78
2022/08/26 03:34:24;;;;;;;32.13;25.50;;;20.70;99.90;;;;;;5034231;28;20077;-78
2022/08/26 03:36:51;;;;;;;29.53;23.70;;;20.70;99.90;;;;;;5033829;28;20492;-78
2022/08/26 03:39:17;;;;;;;26.70;23.70;;;20.60;99.90;;;;;;5034499;28;20041;-78
2022/08/26 03:41:43;;;;;;;33.47;24.83;;;20.60;99.90;;;;;;5034398;28;20492;-78
2022/08/26 03:44:10;;;;;;;;;;;20.60;99.90;;;;;;5034443;28;20042;-79
2022/08/26 03:46:36;;;;;;;28.85;21.90;;;20.70;99.90;;;;;;5034019;28;19921;-77
2022/08/26 03:49:04;;;;;;;20.88;18.58;;;20.60;99.90;;;;;;5032440;28;20046;-78
2022/08/26 03:51:31;;;;;;;28.48;22.77;;;20.60;99.90;;;;;;5034275;28;20512;-78
2022/08/26 03:53:57;;;;;;;29.38;24.02;;;20.70;99.90;;;;;;5033843;28;20049;-78
2022/08/26 03:56:23;;;;;;;26.38;20.67;;;20.60;99.90;;;;;;5033884;28;20050;-77
2022/08/26 03:58:49;;;;;;;29.73;25.13;;;20.70;99.90;;;;;;5033823;28;20488;-79
2022/08/26 04:01:15;;;;;;;30.87;24.47;;;20.60;99.90;;;;;;5034001;28;20280;-77
2022/08/26 04:03:59;;;;;;;30.53;24.00;;;20.60;99.90;;;;;;5033799;28;20315;-76
2022/08/26 04:06:30;;;;;;;27.90;21.48;;;20.70;99.90;;;;;;5034301;28;20076;-77
2022/08/26 04:08:59;;;;;;;31.30;25.27;;;20.60;99.90;;;;;;5033387;28;20134;-78
2022/08/26 04:11:30;;;;;;;26.38;22.23;;;20.60;99.90;;;;;;5033996;28;20469;-78
2022/08/26 04:14:01;;;;;;;32.17;24.17;;;20.60;99.90;;;;;;5033650;28;20133;-78
2022/08/26 04:16:28;;;;;;;31.35;25.23;;;20.60;99.90;;;;;;5033572;28;20490;-78
2022/08/26 04:18:55;;;;;;;30.63;24.80;;;20.40;99.90;;;;;;5033695;28;20168;-78
2022/08/26 04:21:21;;;;;;;27.40;23.52;;;20.60;99.90;;;;;;5032944;28;20065;-78
2022/08/26 04:23:47;;;;;;;32.60;25.17;;;20.60;99.90;;;;;;5033246;28;20041;-78
2022/08/26 04:26:13;;;;;;;35.63;26.02;;;20.60;99.90;;;;;;5033670;28;20087;-79
2022/08/26 04:28:38;;;;;;;32.33;25.50;;;20.60;99.90;;;;;;5033587;28;20449;-78
2022/08/26 04:31:04;;;;;;;30.23;23.20;;;20.50;99.90;;;;;;5033429;28;20042;-78
2022/08/26 04:33:30;;;;;;;28.40;22.10;;;20.50;99.90;;;;;;5033721;28;20046;-78
2022/08/26 04:36:00;;;;;;;29.57;22.80;;;20.50;99.90;;;;;;5033902;28;20049;-78
2022/08/26 04:38:26;;;;;;;29.40;23.50;;;20.60;99.90;;;;;;5033696;28;20091;-78
2022/08/26 04:40:51;;;;;;;29.20;22.73;;;20.60;99.90;;;;;;5032921;28;20041;-78
2022/08/26 04:43:17;;;;;;;29.93;23.10;;;20.60;99.90;;;;;;5037332;28;20133;-78
2022/08/26 04:45:43;;;;;;;30.60;22.83;;;20.50;99.90;;;;;;5036128;28;20041;-78
2022/08/26 04:48:08;;;;;;;30.70;24.37;;;20.40;99.90;;;;;;5037457;28;20447;-78
2022/08/26 04:50:34;;;;;;;31.47;24.33;;;20.50;99.90;;;;;;5036352;28;20084;-78
2022/08/26 04:53:00;;;;;;;33.47;23.57;;;20.50;99.90;;;;;;5035693;28;20056;-78
2022/08/26 04:55:25;;;;;;;30.83;23.30;;;20.50;99.90;;;;;;5037125;28;20041;-78
2022/08/26 04:57:52;;;;;;;31.33;22.13;;;20.50;99.90;;;;;;5037069;28;20095;-78
2022/08/26 05:00:18;;;;;;;31.48;21.77;;;20.50;99.90;;;;;;5036945;28;20049;-78
2022/08/26 05:02:44;;;;;;;31.20;22.73;;;20.60;99.90;;;;;;5037032;28;20087;-78
2022/08/26 05:05:11;;;;;;;30.13;21.17;;;20.70;99.90;;;;;;5036981;28;20041;-78
2022/08/26 05:07:36;;;;;;;29.63;20.98;;;20.60;99.90;;;;;;5037143;28;20128;-78
2022/08/26 05:10:03;;;;;;;28.70;22.23;;;20.60;99.90;;;;;;5037181;28;20153;-78
2022/08/26 05:12:29;;;;;;;;;;;20.60;99.90;;;;;;5037085;28;20437;-78
2022/08/26 05:14:55;;;;;;;27.75;20.05;;;20.70;99.90;;;;;;5036268;28;20335;-78
2022/08/26 05:17:21;;;;;;;29.33;21.03;;;20.70;99.90;;;;;;5036741;28;20041;-78
2022/08/26 05:19:47;;;;;;;30.37;21.37;;;20.70;99.90;;;;;;5035773;28;20056;-78
2022/08/26 05:22:13;;;;;;;28.27;21.60;;;20.70;99.90;;;;;;5035189;28;20049;-78
2022/08/26 05:24:39;;;;;;;25.77;20.55;;;20.80;99.90;;;;;;5036524;28;20064;-78
2022/08/26 05:27:06;;;;;;;25.50;19.10;;;20.80;99.90;;;;;;5036666;28;20099;-79
2022/08/26 05:29:31;;;;;;;30.08;20.05;;;20.80;99.90;;;;;;5036419;28;20045;-79
2022/08/26 05:31:57;;;;;;;22.57;16.97;;;20.90;99.90;;;;;;5035470;28;20132;-79
2022/08/26 05:34:23;;;;;;;26.73;18.57;;;20.80;99.90;;;;;;5036426;28;20046;-78
2022/08/26 05:36:49;;;;;;;24.90;17.47;;;20.90;99.90;;;;;;5034851;28;20053;-78
2022/08/26 05:39:14;;;;;;;23.67;17.60;;;20.90;99.90;;;;;;5036315;28;20041;-79
2022/08/26 05:41:41;;;;;;;26.67;18.07;;;20.90;99.90;;;;;;5036406;28;20060;-79
2022/08/26 05:44:10;;;;;;;26.10;17.15;;;20.90;99.90;;;;;;5036134;28;20041;-78
2022/08/26 05:46:37;;;;;;;24.85;18.38;;;21.00;99.90;;;;;;5036170;28;20100;-78
2022/08/26 05:49:03;;;;;;;;;;;21.00;99.90;;;;;;5035357;28;20080;-79
2022/08/26 05:51:29;;;;;;;20.38;16.23;;;21.00;99.90;;;;;;5036058;28;20058;-79
2022/08/26 05:53:55;;;;;;;23.70;16.47;;;21.10;99.90;;;;;;5033911;28;20095;-78
2022/08/26 05:56:24;;;;;;;24.97;17.93;;;21.10;99.90;;;;;;5036031;28;20060;-78
2022/08/26 05:58:50;;;;;;;23.25;17.33;;;21.20;99.90;;;;;;5035828;28;20053;-79
2022/08/26 06:01:20;;;;;;;20.75;14.30;;;21.10;99.90;;;;;;5036414;28;20056;-78
2022/08/26 06:03:50;;;;;;;25.52;16.65;;;21.20;99.90;;;;;;5035809;28;20048;-78
2022/08/26 06:06:42;;;;;;;23.15;15.25;;;21.20;99.90;;;;;;5035847;28;20049;-79
2022/08/26 06:09:09;;;;;;;20.25;15.32;;;21.30;99.90;;;;;;5032746;28;20057;-78
2022/08/26 06:11:35;;;;;;;23.00;16.23;;;21.40;99.90;;;;;;5034787;28;20061;-78
2022/08/26 06:14:03;;;;;;;22.20;15.48;;;21.40;99.90;;;;;;5035669;28;20091;-79
2022/08/26 06:16:29;;;;;;;21.40;13.82;;;21.40;99.90;;;;;;5034676;28;20041;-79
2022/08/26 06:18:55;;;;;;;19.67;12.93;;;21.50;99.90;;;;;;5034812;28;20041;-79
2022/08/26 06:21:31;;;;;;;18.93;14.30;;;21.50;99.90;;;;;;5035601;28;20053;-78
2022/08/26 06:26:49;;;;;;;19.08;13.73;;;21.50;99.90;;;;;;5035493;28;20045;-79
2022/08/26 06:29:15;;;;;;;22.92;13.88;;;21.50;99.90;;;;;;5035212;28;20085;-78
2022/08/26 06:31:40;;;;;;;18.70;12.70;;;21.50;99.90;;;;;;5035660;28;20057;-79
2022/08/26 06:34:06;;;;;;;20.27;13.00;;;21.60;99.90;;;;;;5034183;28;20512;-78
2022/08/26 06:36:33;;;;;;;20.53;12.57;;;21.60;99.90;;;;;;5035197;28;20061;-77
2022/08/26 06:39:03;;;;;;;20.23;11.88;;;21.60;99.90;;;;;;5034950;28;20464;-78
2022/08/26 06:41:30;;;;;;;17.50;13.20;;;21.60;99.90;;;;;;5035042;28;20450;-78
2022/08/26 06:43:56;;;;;;;17.40;12.32;;;21.70;99.90;;;;;;5034110;28;20056;-78
2022/08/26 06:46:22;;;;;;;18.17;12.03;;;21.70;99.90;;;;;;5035470;28;20049;-78
2022/08/26 06:48:48;;;;;;;17.60;12.03;;;21.70;99.90;;;;;;5033894;28;20300;-78
2022/08/26 06:51:20;;;;;;;26.10;18.92;;;21.80;99.90;;;;;;5034732;28;20353;-78
2022/08/26 06:53:47;;;;;;;15.25;11.63;;;21.80;99.90;;;;;;5034877;28;20053;-78
2022/08/26 06:56:14;;;;;;;142.10;88.30;;;21.90;99.90;;;;;;5034810;28;20050;-78
2022/08/26 06:58:41;;;;;;;17.58;12.02;;;22.00;99.90;;;;;;5033893;28;20053;-79
2022/08/26 07:01:19;;;;;;;16.80;12.70;;;22.00;99.90;;;;;;5034514;28;20624;-79
2022/08/26 07:03:46;;;;;;;17.48;12.00;;;22.10;99.90;;;;;;5034514;28;20139;-78
2022/08/26 07:06:12;;;;;;;17.92;11.70;;;22.10;99.90;;;;;;5033844;28;20405;-78
2022/08/26 07:08:38;;;;;;;17.23;11.27;;;22.20;99.90;;;;;;5034875;28;20056;-78
2022/08/26 07:11:09;;;;;;;40.37;26.67;;;22.30;99.90;;;;;;5034659;28;20299;-78
2022/08/26 07:13:36;;;;;;;15.75;10.70;;;22.30;99.90;;;;;;5034577;28;20098;-78
2022/08/26 07:16:07;;;;;;;22.45;11.20;;;22.30;99.90;;;;;;5034522;28;20397;-78
2022/08/26 07:18:34;;;;;;;16.45;10.05;;;22.30;99.90;;;;;;5034423;28;20045;-78
2022/08/26 07:21:05;;;;;;;16.48;10.00;;;22.20;99.90;;;;;;5033987;28;20436;-78
2022/08/26 07:23:32;;;;;;;15.50;10.20;;;22.40;99.90;;;;;;5034449;28;20050;-79
2022/08/26 07:25:58;;;;;;;;;;;22.50;99.90;;;;;;5033621;28;20057;-78
2022/08/26 07:28:24;;;;;;;15.70;9.55;;;22.60;99.90;;;;;;5033048;28;19927;-78
2022/08/26 07:30:50;;;;;;;19.05;10.35;;;22.70;99.90;;;;;;5034170;28;20084;-78
2022/08/26 07:33:16;;;;;;;15.50;8.70;;;22.70;99.90;;;;;;5034211;28;20532;-79
2022/08/26 07:35:43;;;;;;;;;;;22.80;99.90;;;;;;5034359;28;20056;-78
2022/08/26 07:38:09;;;;;;;16.60;9.00;;;22.90;99.90;;;;;;5034155;28;19928;-79
2022/08/26 07:40:35;;;;;;;16.60;8.82;;;22.90;99.90;;;;;;5034301;28;20041;-78
2022/08/26 07:43:00;;;;;;;15.33;8.70;;;22.90;99.90;;;;;;5034125;28;20107;-78
2022/08/26 07:45:27;;;;;;;18.23;8.87;;;23.00;99.90;;;;;;5033907;28;20050;-78
2022/08/26 07:47:53;;;;;;;14.88;8.63;;;23.00;99.90;;;;;;5033967;28;20096;-79
2022/08/26 07:50:21;;;;;;;12.27;8.13;;;22.90;99.90;;;;;;5033990;28;20417;-79
2022/08/26 07:52:47;;;;;;;15.55;7.80;;;23.00;99.90;;;;;;5033789;28;20057;-78
2022/08/26 07:55:13;;;;;;;14.55;7.38;;;22.90;99.90;;;;;;5033625;28;20041;-79
2022/08/26 07:57:39;;;;;;;13.38;6.80;;;23.20;99.90;;;;;;5016208;28;20592;-77
2022/08/26 08:00:07;;;;;;;14.00;6.87;;;23.30;99.90;;;;;;5033639;28;20077;-78
2022/08/26 08:02:34;;;;;;;11.95;7.00;;;23.40;99.90;;;;;;5033681;28;20047;-79
2022/08/26 08:04:59;;;;;;;;;;;23.40;99.90;;;;;;5034668;28;20128;-78
2022/08/26 08:07:26;;;;;;;16.15;6.90;;;23.50;99.90;;;;;;5034584;28;19995;-78
2022/08/26 08:09:51;;;;;;;;;;;23.60;99.90;;;;;;5034377;28;20049;-79
2022/08/26 08:12:18;;;;;;;13.95;6.43;;;23.60;99.90;;;;;;5033622;28;20028;-78
2022/08/26 08:14:45;;;;;;;13.40;5.95;;;23.60;99.90;;;;;;5034054;28;20467;-78
2022/08/26 08:17:12;;;;;;;17.73;6.40;;;23.60;99.90;;;;;;5033098;28;20053;-80
2022/08/26 08:19:38;;;;;;;13.27;5.10;;;23.60;99.90;;;;;;5039126;28;20045;-78
2022/08/26 08:22:04;;;;;;;13.00;5.63;;;23.70;99.90;;;;;;5032407;28;20496;-79
2022/08/26 08:24:32;;;;;;;15.48;5.63;;;23.70;99.90;;;;;;5032695;28;20639;-78
2022/08/26 08:27:00;;;;;;;12.95;5.30;;;23.70;99.90;;;;;;5033554;28;20096;-79
2022/08/26 08:29:28;;;;;;;10.20;5.00;;;23.70;99.90;;;;;;5015849;28;20090;-79
2022/08/26 08:31:54;;;;;;;13.70;5.70;;;23.80;99.90;;;;;;5032469;28;20519;-79
2022/08/26 08:34:20;;;;;;;10.52;5.40;;;23.90;99.90;;;;;;5033455;28;20078;-79
2022/08/26 08:36:46;;;;;;;12.30;5.57;;;23.90;99.90;;;;;;5033423;28;20124;-78
2022/08/26 08:39:12;;;;;;;16.37;6.50;;;23.90;99.90;;;;;;5033417;28;20037;-79
2022/08/26 08:42:09;;;;;;;13.43;5.57;;;23.90;99.90;;;;;;5033436;28;20049;-78
2022/08/26 08:44:39;;;;;;;13.38;5.78;;;23.90;99.90;;;;;;5001983;28;20085;-79
2022/08/26 08:47:18;;;;;;;10.85;5.18;;;24.00;99.90;;;;;;5033377;28;20552;-78
2022/08/26 08:49:44;;;;;;;12.88;5.32;;;24.10;99.90;;;;;;5033730;28;20041;-79
2022/08/26 08:52:24;;;;;;;14.63;5.23;;;24.10;99.90;;;;;;5033392;28;20413;-79
2022/08/26 08:54:49;;;;;;;13.32;5.00;;;24.20;99.90;;;;;;5033350;28;20045;-79
2022/08/26 08:57:38;;;;;;;9.03;5.30;;;24.20;99.90;;;;;;5033261;28;20045;-78
2022/08/26 09:00:10;;;;;;;13.75;5.63;;;24.30;99.90;;;;;;5033089;28;20045;-79
2022/08/26 09:02:55;;;;;;;10.55;5.28;;;24.30;99.90;;;;;;5032362;28;20136;-78
2022/08/26 09:05:30;;;;;;;10.63;4.70;;;24.30;99.90;;;;;;5033085;28;20060;-78
2022/08/26 09:08:03;;;;;;;12.25;5.22;;;24.30;99.90;;;;;;5033035;28;20041;-78
2022/08/26 09:10:31;;;;;;;10.25;5.10;;;24.20;99.90;;;;;;5032179;28;20053;-79
2022/08/26 09:12:58;;;;;;;10.82;5.25;;;24.20;99.90;;;;;;5032923;28;20045;-78
2022/08/26 09:15:56;;;;;;;13.68;5.45;;;24.20;99.90;;;;;;5032250;28;20049;-79
2022/08/26 09:18:50;;;;;;;10.35;5.05;;;24.10;99.90;;;;;;5033364;28;20547;-78
2022/08/26 09:21:19;;;;;;;11.45;3.88;;;24.10;99.90;;;;;;5034160;28;20037;-78
2022/08/26 09:23:45;;;;;;;10.23;4.28;;;24.10;99.90;;;;;;5032898;28;20121;-79
2022/08/26 09:26:25;;;;;;;10.90;4.72;;;24.20;99.90;;;;;;5031831;28;20049;-79
2022/08/26 09:28:55;;;;;;;11.10;3.72;;;24.20;99.90;;;;;;5036593;28;20111;-79
2022/08/26 09:31:32;;;;;;;8.88;3.50;;;24.30;99.90;;;;;;5035239;28;20053;-79
2022/08/26 09:34:18;;;;;;;9.30;4.13;;;24.30;99.90;;;;;;5036547;28;20034;-79
2022/08/26 09:36:45;;;;;;;8.15;3.60;;;24.30;99.90;;;;;;5036854;28;20136;-78
2022/08/26 09:39:23;;;;;;;8.27;3.72;;;24.30;99.90;;;;;;5036144;28;20045;-79
2022/08/26 09:42:09;;;;;;;10.65;4.15;;;24.20;99.90;;;;;;5035092;28;20138;-79
2022/08/26 09:44:56;;;;;;;10.65;3.83;;;24.10;99.90;;;;;;5035867;28;20499;-79
2022/08/26 09:47:25;;;;;;;9.77;4.13;;;24.00;99.90;;;;;;5035500;28;20375;-79
2022/08/26 09:50:22;;;;;;;7.45;3.00;;;24.00;99.90;;;;;;5036004;28;20143;-78
2022/08/26 09:53:06;;;;;;;9.45;3.45;;;24.10;99.90;;;;;;5008009;28;20096;-78
2022/08/26 09:55:35;;;;;;;9.38;3.65;;;24.10;99.90;;;;;;5040094;28;20389;-77
2022/08/26 09:58:00;;;;;;;8.15;3.40;;;24.10;99.90;;;;;;5002779;28;20045;-79
2022/08/26 10:00:36;;;;;;;6.27;2.80;;;24.10;99.90;;;;;;5035870;28;20045;-78
2022/08/26 10:03:10;;;;;;;7.95;2.95;;;24.00;99.90;;;;;;5035867;28;20060;-78
2022/08/26 10:05:46;;;;;;;12.07;2.80;;;23.90;99.90;;;;;;5018273;28;20056;-78
2022/08/26 10:08:21;;;;;;;7.07;2.33;;;24.00;99.90;;;;;;5035647;28;20038;-78
2022/08/26 10:10:48;;;;;;;7.50;2.60;;;23.80;99.90;;;;;;5035019;28;20501;-78
2022/08/26 10:13:41;;;;;;;7.65;2.38;;;23.90;99.90;;;;;;5035864;28;20053;-78
2022/08/26 10:16:26;;;;;;;10.52;2.90;;;23.80;99.90;;;;;;5035220;28;20087;-78
2022/08/26 10:18:58;;;;;;;6.18;2.55;;;23.80;99.90;;;;;;5035403;28;20041;-79
2022/08/26 10:21:31;;;;;;;8.27;2.45;;;23.80;99.90;;;;;;5035344;28;20515;-79
2022/08/26 10:23:59;;;;;;;9.93;2.60;;;23.80;99.90;;;;;;5035745;28;20088;-78
2022/08/26 10:26:44;;;;;;;7.63;2.58;;;23.80;99.90;;;;;;5034476;28;20432;-77
2022/08/26 10:29:26;;;;;;;6.60;2.40;;;23.80;99.90;;;;;;5035582;28;20413;-79
2022/08/26 10:32:11;;;;;;;7.28;2.20;;;23.80;99.90;;;;;;5034375;28;20374;-79
2022/08/26 10:34:36;;;;;;;6.90;2.22;;;23.80;99.90;;;;;;5035364;28;20037;-79
2022/08/26 10:37:09;;;;;;;6.47;2.30;;;23.70;99.90;;;;;;5034105;28;20045;-79
2022/08/26 10:39:56;;;;;;;7.53;1.95;;;23.70;99.90;;;;;;5034230;28;20041;-79
2022/08/26 10:42:34;;;;;;;7.80;2.10;;;23.70;99.90;;;;;;5034548;28;20106;-79
2022/08/26 10:45:08;;;;;;;5.50;1.83;;;23.70;99.90;;;;;;5035057;28;20060;-79
2022/08/26 10:47:46;;;;;;;6.28;1.92;;;23.70;99.90;;;;;;5017787;28;20085;-80
2022/08/26 10:50:12;;;;;;;8.80;2.13;;;23.60;99.90;;;;;;5034189;28;20052;-79
2022/08/26 10:53:13;;;;;;;6.47;1.73;;;23.60;99.90;;;;;;5035478;28;20045;-79
2022/08/26 10:55:56;;;;;;;6.93;2.30;;;23.50;99.90;;;;;;4938316;29;20094;-79
2022/08/26 10:58:41;;;;;;;5.97;2.10;;;23.40;99.90;;;;;;5027749;28;20132;-79
2022/08/26 11:04:20;;;;;;;5.40;1.63;;;23.30;99.90;;;;;;5034282;28;20057;-79
2022/08/26 11:06:46;;;;;;;6.53;2.05;;;23.20;99.90;;;;;;5033963;28;20131;-79
2022/08/26 11:09:43;;;;;;;6.80;1.80;;;23.30;99.90;;;;;;5032985;28;20133;-78
2022/08/26 11:12:29;;;;;;;6.65;2.22;;;23.40;99.90;;;;;;5034446;28;20042;-78
2022/08/26 11:15:20;;;;;;;9.68;2.53;;;23.50;99.90;;;;;;5032512;28;20092;-79
2022/08/26 11:17:46;;;;;;;6.30;2.20;;;23.60;99.90;;;;;;4983097;28;20045;-79
2022/08/26 11:20:37;;;;;;;5.07;2.03;;;23.60;99.90;;;;;;5035788;28;20041;-79
2022/08/26 11:23:26;;;;;;;5.95;1.98;;;23.50;99.90;;;;;;5035005;28;20394;-78
2022/08/26 11:25:54;;;;;;;7.88;2.35;;;23.60;99.90;;;;;;5001617;28;20060;-79
2022/08/26 11:28:48;;;;;;;5.82;1.88;;;23.60;99.90;;;;;;5033115;28;20049;-79
2022/08/26 11:31:23;;;;;;;9.23;2.10;;;23.70;99.90;;;;;;5029563;28;20061;-79
2022/08/26 11:34:03;;;;;;;6.68;1.88;;;23.60;99.90;;;;;;5034400;28;20049;-79
2022/08/26 11:36:44;;;;;;;6.35;1.75;;;23.70;99.90;;;;;;5034160;28;20076;-78
2022/08/26 11:39:15;;;;;;;4.40;1.80;;;23.80;99.90;;;;;;5033940;28;20462;-79
2022/08/26 11:41:46;;;;;;;5.72;2.10;;;23.70;99.90;;;;;;5032949;28;20107;-79
2022/08/26 11:44:19;;;;;;;8.27;2.30;;;23.60;99.90;;;;;;5032985;28;20087;-78
2022/08/26 11:47:02;;;;;;;8.25;2.45;;;23.70;99.90;;;;;;5034277;28;20041;-78
2022/08/26 11:49:30;;;;;;;7.18;2.20;;;23.60;99.90;;;;;;5034221;28;20052;-79
2022/08/26 11:52:11;;;;;;;8.85;2.35;;;23.60;99.90;;;;;;5032929;28;20114;-79
2022/08/26 11:54:37;;;;;;;9.18;2.40;;;23.50;99.90;;;;;;5033093;28;20049;-79
2022/08/26 11:57:06;;;;;;;6.03;2.13;;;23.40;99.90;;;;;;5033809;28;20049;-79
2022/08/26 11:59:37;;;;;;;7.57;1.92;;;23.40;99.90;;;;;;5032635;28;20136;-80
2022/08/26 12:02:09;;;;;;;9.25;2.33;;;23.40;99.90;;;;;;5034471;28;20376;-80
2022/08/26 12:04:39;;;;;;;8.10;2.00;;;23.20;99.90;;;;;;5033766;28;20477;-79
2022/08/26 12:07:07;;;;;;;8.50;2.10;;;23.20;99.90;;;;;;5033794;28;20045;-79
2022/08/26 12:09:36;;;;;;;6.65;2.40;;;23.20;99.90;;;;;;5033654;28;20401;-79
2022/08/26 12:12:29;;;;;;;9.52;2.33;;;23.10;99.90;;;;;;5033675;28;20111;-79
2022/08/26 12:15:21;;;;;;;7.07;2.05;;;23.20;99.90;;;;;;5033377;28;20107;-78
2022/08/26 12:17:48;;;;;;;9.93;2.42;;;23.20;99.90;;;;;;5012308;28;20507;-79
2022/08/26 12:20:47;;;;;;;9.23;2.20;;;23.20;99.90;;;;;;5033786;28;20037;-78
2022/08/26 12:23:23;;;;;;;8.15;2.10;;;23.20;99.90;;;;;;5034646;28;20096;-79
2022/08/26 12:25:51;;;;;;;5.80;1.90;;;23.10;99.90;;;;;;5033553;28;20060;-78
2022/08/26 12:28:18;;;;;;;8.05;2.53;;;23.10;99.90;;;;;;5033447;28;20516;-79
2022/08/26 12:31:04;;;;;;;6.28;2.20;;;23.10;99.90;;;;;;5033650;28;20038;-80
2022/08/26 12:33:33;;;;;;;8.20;2.17;;;23.20;99.90;;;;;;5033830;28;20053;-80
2022/08/26 12:36:00;;;;;;;5.30;1.80;;;23.30;99.90;;;;;;5015820;28;20041;-78
2022/08/26 12:38:27;;;;;;;7.13;2.13;;;23.50;99.90;;;;;;5032449;28;20111;-79
2022/08/26 12:40:54;;;;;;;7.18;2.00;;;23.60;99.90;;;;;;5033818;28;20378;-79
2022/08/26 12:43:42;;;;;;;7.20;1.92;;;23.70;99.90;;;;;;5032584;28;20052;-79
2022/08/26 12:46:10;;;;;;;6.07;1.90;;;23.70;99.90;;;;;;5033553;28;20041;-79
2022/08/26 12:48:39;;;;;;;6.68;2.33;;;23.70;99.90;;;;;;5033187;28;20038;-79
2022/08/26 12:51:18;;;;;;;7.10;2.05;;;23.60;99.90;;;;;;5033782;28;20081;-79
2022/08/26 12:53:44;;;;;;;5.43;2.20;;;23.60;99.90;;;;;;5033759;28;20057;-79
2022/08/26 12:56:35;;;;;;;5.23;2.10;;;23.60;99.90;;;;;;5033352;28;20053;-78
2022/08/26 12:59:18;;;;;;;6.00;1.85;;;23.50;99.90;;;;;;5033251;28;20045;-79
2022/08/26 13:01:45;;;;;;;5.68;1.80;;;23.40;99.90;;;;;;5033955;28;20419;-79
2022/08/26 13:04:37;;;;;;;6.32;1.73;;;23.30;99.90;;;;;;5037301;28;20132;-79